Fergana, Uzbekistan
Current Conditions -  °F | °C
As of 6:00 AM on Sunday 26 Oct 2014 (Local Time) from UTFF Reporting Station
Clear Clear  
Wind Chill: 45°   Ceiling: Unl
Heat Index: 48°   Visibility: 6mi
Dew Point: 41°   Wind: 7mph
Humidity: 76%   Direction: 170°S
Pressure: 29.97"   Gusts: NA
Location:  40.37°N, 71.75°E
Report Text: UTFF 260100Z 17003MPS 9999 NSC 09/05 Q1015 R99/CLRD70
Loading
Personal Weather Stations






























Interactive Weather Map
Tropical Storm Tracking
New forecast layout! Learn more

10-Day Weather Forecast

Advertisements
Track Severe Weather on mobile